Washoe Valley, Nevada
Current Conditions -  °F | °C
As of 11:55 AM on Friday 24 Oct 2014 (Local Time) from KCXP Reporting Station
Clear Clear  
Wind Chill: 72°   Ceiling: Unl
Heat Index: 72°   Visibility: 10mi
Dew Point: 28°   Wind: 12mph
Humidity: 20%   Direction: 90°E
Pressure: 30.06"   Gusts: 18mph
Location:  39.32°N, 119.8°W
Report Text: KCXP 241855Z AUTO 09010G16KT 10SM CLR 22/M02 A3006 RMK AO2
Loading
Personal Weather Stations






























Interactive Weather Map
Tropical Storm Tracking
New forecast layout! Learn more

10-Day Weather Forecast

Advertisements
Track Severe Weather on mobile